Alert, Canada
Current Conditions -  °F | °C
As of 2:00 AM on Sunday 23 Nov 2014 (Local Time) from CWEU Reporting Station
Clear Clear  
Wind Chill: -33°   Ceiling: Unl
Heat Index: -33°   Visibility: 15mi
Dew Point: -38°   Wind: 2mph
Humidity: 62%   Direction: 60°ENE
Pressure: 29.8"   Gusts: NA
Location:  82.47°N, 62.5°W
Report Text: CWEU 230700Z 06002KT 15SM SKC M33/M38 A2980 RMK SLP093
Loading
Personal Weather Stations






























Interactive Weather Map New forecast layout! Learn more

10-Day Weather Forecast

Advertisements
Track Severe Weather on mobile